Time;durP1;ratioP1;P1;durP2;ratioP2;P2;SDS_P1;SDS_P2;PMS_P1;PMS_P2;Temp;Humidity;BMP_temperature;BMP_pressure;BME280_temperature;BME280_humidity;BME280_pressure;Samples;Min_cycle;Max_cycle;Signal;HPM_P1;HPM_P2
2023/03/20 00:01:21;;;;;;;;;7.50;7.50;;;;;10.15;54.17;101437.72;5074843;28;45847;-73
2023/03/20 00:03:50;;;;;;;;;10.50;7.50;;;;;10.14;53.97;101432.56;5074502;28;45615;-75
2023/03/20 00:06:23;;;;;;;;;11.00;8.50;;;;;10.11;54.32;101439.66;5074401;28;45967;-75
2023/03/20 00:08:51;;;;;;;;;7.75;7.75;;;;;10.16;54.16;101443.78;5074545;28;45507;-75
2023/03/20 00:11:25;;;;;;;;;10.25;8.00;;;;;10.14;54.22;101448.28;5074715;28;45722;-76
2023/03/20 00:13:52;;;;;;;;;10.00;8.00;;;;;10.11;54.23;101441.44;5074353;28;45656;-74
2023/03/20 00:16:17;;;;;;;;;8.00;8.00;;;;;10.11;54.33;101457.16;5074010;28;46114;-74
2023/03/20 00:18:43;;;;;;;;;10.00;8.25;;;;;10.08;54.45;101449.47;5073651;28;45647;-74
2023/03/20 00:21:16;;;;;;;;;10.00;7.25;;;;;9.97;54.67;101438.75;5074363;28;45664;-74
2023/03/20 00:23:42;;;;;;;;;10.25;9.25;;;;;10.02;54.62;101457.66;5055660;28;46433;-74
2023/03/20 00:26:12;;;;;;;;;10.50;7.00;;;;;9.86;54.53;101439.34;5072420;28;46835;-74
2023/03/20 00:28:41;;;;;;;;;7.75;7.50;;;;;9.90;54.62;101447.84;5074153;28;45607;-75
2023/03/20 00:31:27;;;;;;;;;9.75;9.75;;;;;9.92;54.56;101459.09;5074134;28;45578;-74
2023/03/20 00:33:56;;;;;;;;;10.25;8.25;;;;;9.90;54.75;101456.56;5074043;28;45697;-75
2023/03/20 00:36:22;;;;;;;;;11.75;10.25;;;;;9.89;54.65;101452.25;5073479;28;46081;-76
2023/03/20 00:38:47;;;;;;;;;11.25;10.00;;;;;9.80;54.71;101439.66;5073809;28;45964;-75
2023/03/20 00:41:30;;;;;;;;;12.00;10.75;;;;;9.82;54.96;101442.22;5055877;28;46144;-74
2023/03/20 00:44:04;;;;;;;;;10.50;9.00;;;;;9.90;54.99;101459.19;5073676;28;46842;-72
2023/03/20 00:46:37;;;;;;;;;10.50;10.00;;;;;9.91;54.76;101455.63;5073952;28;46225;-73
2023/03/20 00:49:02;;;;;;;;;9.75;7.50;;;;;9.89;54.77;101452.25;5073563;28;45791;-75
2023/03/20 00:51:28;;;;;;;;;13.75;10.50;;;;;9.93;55.06;101450.31;5073921;28;45882;-74
2023/03/20 00:53:53;;;;;;;;;11.75;10.50;;;;;9.93;55.20;101438.06;5073913;28;46947;-75
2023/03/20 00:56:28;;;;;;;;;11.75;10.00;;;;;9.94;55.13;101441.50;5073740;28;45689;-73
2023/03/20 00:58:54;;;;;;;;;5.75;5.75;;;;;9.93;55.13;101445.91;5074399;28;45784;-75
2023/03/20 01:01:22;;;;;;;;;12.00;11.00;;;;;9.94;55.00;101441.50;5074344;28;45656;-74
2023/03/20 01:03:48;;;;;;;;;12.25;10.25;;;;;9.89;55.17;101440.94;5059371;28;46281;-75
2023/03/20 01:06:13;;;;;;;;;11.00;10.00;;;;;9.91;55.27;101447.78;5077253;28;45943;-74
2023/03/20 01:08:39;;;;;;;;;11.00;11.00;;;;;9.93;55.31;101443.28;5077264;28;46025;-74
2023/03/20 01:11:05;;;;;;;;;15.50;13.00;;;;;9.87;55.18;101437.56;5077352;28;45775;-75
2023/03/20 01:13:31;;;;;;;;;15.00;10.00;;;;;9.95;55.42;101444.06;5059022;28;47546;-74
2023/03/20 01:15:57;;;;;;;;;9.75;9.75;;;;;9.98;55.27;101450.91;5077314;28;46362;-75
2023/03/20 01:18:24;;;;;;;;;12.50;7.75;;;;;9.92;55.08;101439.00;5060717;28;45855;-75
2023/03/20 01:24:12;;;;;;;;;9.00;8.25;;;;;9.87;55.15;101435.81;5056592;28;45579;-75
2023/03/20 01:26:53;;;;;;;;;10.75;9.50;;;;;9.96;54.86;101455.38;5057102;28;45688;-74
2023/03/20 01:29:32;;;;;;;;;12.25;10.00;;;;;9.94;54.86;101463.31;5056600;28;45500;-74
2023/03/20 01:31:58;;;;;;;;;14.50;10.00;;;;;9.94;55.05;101463.31;5056829;28;45678;-74
2023/03/20 01:34:29;;;;;;;;;11.50;9.50;;;;;9.91;54.81;101462.63;5056900;28;45751;-75
2023/03/20 01:36:58;;;;;;;;;10.50;8.00;;;;;9.81;55.00;101445.75;5056650;28;47149;-74
2023/03/20 01:39:32;;;;;;;;;10.75;7.75;;;;;9.60;55.10;101411.97;5055390;28;45628;-74
2023/03/20 01:41:59;;;;;;;;;11.50;10.50;;;;;9.91;55.34;101465.25;5056260;28;45859;-74
2023/03/20 01:44:32;;;;;;;;;10.00;10.00;;;;;9.58;55.19;101408.59;5056338;28;46458;-75
2023/03/20 01:46:59;;;;;;;;;11.25;11.25;;;;;9.77;55.03;101429.34;5056557;28;46301;-73
2023/03/20 01:49:25;;;;;;;;;8.50;7.75;;;;;9.85;55.26;101455.97;5039637;28;45698;-75
2023/03/20 01:51:51;;;;;;;;;8.00;7.00;;;;;9.60;55.38;101422.44;5057936;28;45794;-72
2023/03/20 01:54:20;;;;;;;;;8.50;8.00;;;;;9.81;55.17;101445.75;5057280;28;46508;-74
2023/03/20 01:56:51;;;;;;;;;11.00;10.00;;;;;9.79;55.32;101447.59;5056032;28;46453;-74
2023/03/20 01:59:23;;;;;;;;;11.25;9.00;;;;;9.50;55.29;101396.88;5056277;28;45737;-74
2023/03/20 02:01:50;;;;;;;;;8.25;7.75;;;;;9.64;55.44;101439.66;5056208;28;45922;-75
2023/03/20 02:04:17;;;;;;;;;12.25;10.50;;;;;9.73;55.50;101446.16;5054697;28;48385;-74
2023/03/20 02:06:44;;;;;;;;;10.00;8.25;;;;;9.54;55.46;101422.78;5056445;28;46214;-73
2023/03/20 02:09:09;;;;;;;;;10.50;7.00;;;;;9.28;55.65;101382.28;5038195;28;45864;-74
2023/03/20 02:11:37;;;;;;;;;10.50;9.50;;;;;9.67;55.66;101442.09;5056963;28;45524;-74
2023/03/20 02:14:03;;;;;;;;;8.00;7.00;;;;;9.62;55.56;101428.41;5056293;28;46256;-73
2023/03/20 02:16:28;;;;;;;;;8.00;6.50;;;;;9.76;55.59;101437.31;5054471;28;48706;-74
2023/03/20 02:18:56;;;;;;;;;11.50;10.25;;;;;9.77;55.66;101445.06;5055866;28;45620;-73
2023/03/20 02:24:52;;;;;;;;;7.00;6.50;;;;;9.79;55.74;101424.03;5056339;28;46015;-74
2023/03/20 02:27:31;;;;;;;;;6.50;5.00;;;;;9.76;55.49;101424.22;5055839;28;47225;-74
2023/03/20 02:30:14;;;;;;;;;9.00;7.50;;;;;9.79;55.57;101427.50;5055668;28;45566;-75
2023/03/20 02:33:07;;;;;;;;;10.25;9.50;;;;;9.81;55.70;101427.44;5054310;28;45998;-75
2023/03/20 02:36:12;;;;;;;;;11.50;9.50;;;;;9.82;55.45;101431.75;5054908;28;45751;-74
2023/03/20 02:39:03;;;;;;;;;9.75;9.00;;;;;9.79;55.74;101429.28;5055610;28;46164;-74
2023/03/20 02:41:46;;;;;;;;;8.50;7.25;;;;;9.81;55.61;101427.44;5056396;28;45453;-74
2023/03/20 02:44:45;;;;;;;;;11.00;8.00;;;;;9.81;55.62;101435.28;5055469;28;45820;-74
2023/03/20 02:47:23;;;;;;;;;8.50;7.00;;;;;9.72;55.76;101407.00;5055180;28;46958;-73
2023/03/20 02:53:19;;;;;;;;;11.00;7.00;;;;;9.78;55.48;101424.97;5055400;28;45532;-75
2023/03/20 02:56:02;;;;;;;;;6.00;6.00;;;;;9.48;55.60;101383.00;5055131;28;45783;-73
2023/03/20 02:58:43;;;;;;;;;10.25;8.00;;;;;9.09;55.66;101307.56;5037398;28;46530;-74
2023/03/20 03:01:20;;;;;;;;;7.00;7.00;;;;;9.34;55.54;101359.38;5054696;28;46492;-75
2023/03/20 03:04:14;;;;;;;;;10.25;8.50;;;;;9.78;55.77;101430.19;5055339;28;45846;-73
2023/03/20 03:10:07;;;;;;;;;10.75;10.25;;;;;9.51;56.09;101370.59;5054505;28;45542;-74
2023/03/20 03:12:41;;;;;;;;;12.75;11.25;;;;;9.54;56.20;101369.63;5054733;28;46391;-73
2023/03/20 03:15:17;;;;;;;;;14.00;12.25;;;;;9.76;55.89;101414.59;5037106;28;45738;-75
2023/03/20 03:17:46;;;;;;;;;14.25;12.50;;;;;9.77;56.27;101413.66;5054874;28;45540;-74
2023/03/20 03:26:51;;;;;;;;;9.50;7.00;;;;;9.73;56.25;101420.00;5053192;28;45519;-74
2023/03/20 03:29:18;;;;;;;;;8.00;8.00;;;;;9.63;56.45;101408.34;5055716;28;45672;-74
2023/03/20 03:31:45;;;;;;;;;11.25;8.00;;;;;9.32;56.24;101356.84;5055190;28;45689;-74
2023/03/20 03:34:14;;;;;;;;;6.00;5.75;;;;;9.51;56.37;101391.53;5036661;28;48357;-74
2023/03/20 03:37:02;;;;;;;;;6.50;6.00;;;;;9.64;56.05;101412.66;5052845;28;46296;-74
2023/03/20 03:39:47;;;;;;;;;7.75;6.00;;;;;9.60;56.39;101409.38;5054801;28;45583;-74
2023/03/20 03:42:26;;;;;;;;;7.50;6.25;;;;;9.57;56.26;101411.28;5054385;28;46575;-75
2023/03/20 03:45:07;;;;;;;;;8.25;6.00;;;;;9.53;56.09;101415.00;5036435;28;46633;-75
2023/03/20 03:47:52;;;;;;;;;6.00;5.25;;;;;9.47;55.90;101408.31;5126084;27;45716;-74
2023/03/20 03:50:25;;;;;;;;;6.25;6.00;;;;;9.46;56.27;101406.63;5115286;27;45920;-74
2023/03/20 03:52:59;;;;;;;;;8.00;6.00;;;;;9.45;56.31;101399.69;5105677;27;46148;-75
2023/03/20 03:55:33;;;;;;;;;6.50;6.00;;;;;9.45;56.31;101404.09;5101055;27;47351;-75
2023/03/20 03:58:03;;;;;;;;;7.00;5.50;;;;;9.37;56.43;101386.22;5105072;27;47123;-75
2023/03/20 04:00:32;;;;;;;;;6.50;5.50;;;;;9.39;56.39;101386.97;5111292;27;46109;-74
2023/03/20 04:02:58;;;;;;;;;6.00;6.00;;;;;9.41;56.13;101395.56;5107244;27;45893;-73
2023/03/20 04:05:30;;;;;;;;;5.75;5.75;;;;;9.35;56.49;101389.81;5107872;27;46359;-74
2023/03/20 04:07:58;;;;;;;;;7.00;5.75;;;;;9.36;56.37;101396.75;5107269;27;46334;-74
2023/03/20 04:10:24;;;;;;;;;6.75;6.00;;;;;9.34;56.47;101388.97;5105791;27;45732;-74
2023/03/20 04:12:50;;;;;;;;;6.00;5.75;;;;;9.34;56.48;101399.44;5107918;27;45925;-74
2023/03/20 04:15:16;;;;;;;;;5.00;3.00;;;;;9.34;56.23;101409.88;5107065;27;45689;-73
2023/03/20 04:17:42;;;;;;;;;5.25;3.75;;;;;9.34;56.27;101415.13;5106464;27;47278;-73
2023/03/20 04:20:08;;;;;;;;;5.50;4.00;;;;;9.34;56.21;101419.53;5105348;27;46892;-75
2023/03/20 04:22:34;;;;;;;;;5.00;5.00;;;;;9.34;56.43;101414.31;5107781;27;46016;-74
2023/03/20 04:25:03;;;;;;;;;6.25;5.00;;;;;9.35;56.25;101418.59;5104241;27;47370;-74
2023/03/20 04:27:29;;;;;;;;;5.00;5.00;;;;;9.17;56.33;101386.44;5098183;27;48083;-73
2023/03/20 04:29:55;;;;;;;;;4.50;4.00;;;;;9.16;56.36;101384.75;5101975;27;45767;-74
2023/03/20 04:32:21;;;;;;;;;5.25;5.00;;;;;9.36;56.40;101415.91;5107310;27;45754;-74
2023/03/20 04:34:47;;;;;;;;;5.75;5.25;;;;;9.32;56.31;101403.06;5100679;27;46564;-76
2023/03/20 04:37:14;;;;;;;;;3.00;3.00;;;;;9.35;56.38;101408.97;5108088;27;46532;-75
2023/03/20 04:39:41;;;;;;;;;7.00;7.00;;;;;8.81;56.38;101331.69;5108360;27;45580;-75
2023/03/20 04:42:09;;;;;;;;;5.00;3.50;;;;;9.28;56.79;101400.59;5106830;27;45723;-75
2023/03/20 04:44:37;;;;;;;;;6.00;6.00;;;;;8.87;56.55;101333.97;5123128;27;46457;-74
2023/03/20 04:47:12;;;;;;;;;5.50;3.00;;;;;9.06;56.62;101360.00;5105187;27;46267;-76
2023/03/20 04:49:41;;;;;;;;;4.50;3.00;;;;;9.02;56.52;101361.06;5101786;27;46103;-75
2023/03/20 04:52:06;;;;;;;;;6.25;5.25;;;;;9.47;56.40;101420.56;5105800;27;45962;-74
2023/03/20 04:54:34;;;;;;;;;6.50;4.00;;;;;9.47;56.56;101417.94;5107845;27;46488;-75
2023/03/20 04:57:00;;;;;;;;;7.25;5.75;;;;;8.87;56.54;101314.84;5103613;27;47556;-75
2023/03/20 04:59:26;;;;;;;;;7.00;6.00;;;;;9.48;56.57;101412.63;5093652;27;45936;-75
2023/03/20 05:01:54;;;;;;;;;10.00;7.25;;;;;9.17;56.62;101371.59;5093323;27;45804;-75
2023/03/20 05:04:20;;;;;;;;;6.50;5.50;;;;;9.51;56.63;101414.22;5086062;27;45880;-74
2023/03/20 05:06:48;;;;;;;;;7.50;6.75;;;;;9.53;56.66;101412.38;5094104;27;46047;-74
2023/03/20 05:09:15;;;;;;;;;6.00;6.00;;;;;8.88;56.36;101293.88;5090811;27;45911;-73
2023/03/20 05:11:41;;;;;;;;;5.25;5.25;;;;;9.52;56.76;101408.91;5094843;27;45946;-74
2023/03/20 05:14:07;;;;;;;;;7.00;6.50;;;;;9.59;56.65;101409.44;5094026;27;45709;-74
2023/03/20 05:16:32;;;;;;;;;7.00;6.00;;;;;9.41;56.78;101384.25;5092864;27;45816;-75
2023/03/20 05:18:57;;;;;;;;;5.00;5.00;;;;;9.47;56.64;101391.78;5090116;27;45651;-75
2023/03/20 05:21:23;;;;;;;;;6.25;5.00;;;;;9.59;56.70;101417.28;5093157;27;45806;-75
2023/03/20 05:23:48;;;;;;;;;5.50;5.00;;;;;9.65;56.78;101402.09;5093322;27;46337;-73
2023/03/20 05:26:13;;;;;;;;;7.50;7.00;;;;;9.67;56.62;101409.84;5083407;27;46046;-74
2023/03/20 05:28:39;;;;;;;;;7.00;6.50;;;;;9.68;56.39;101408.94;5088458;27;45839;-76
2023/03/20 05:31:04;;;;;;;;;7.25;6.00;;;;;9.69;56.47;101416.72;5082444;27;45809;-74
2023/03/20 05:33:32;;;;;;;;;7.00;5.00;;;;;9.72;56.70;101412.25;5088852;27;47762;-75
2023/03/20 05:35:58;;;;;;;;;4.50;4.00;;;;;9.73;56.35;101409.53;5093153;27;46093;-74
2023/03/20 05:38:27;;;;;;;;;5.00;3.00;;;;;9.75;56.29;101409.44;5073671;27;45911;-74
2023/03/20 05:40:57;;;;;;;;;5.00;5.00;;;;;9.68;56.28;101388.00;5089437;27;45964;-74
2023/03/20 05:43:22;;;;;;;;;6.00;3.50;;;;;9.77;56.39;101413.66;5084713;27;47274;-75
2023/03/20 05:45:48;;;;;;;;;7.00;4.00;;;;;9.77;56.00;101405.00;5089438;27;46453;-74
2023/03/20 05:48:13;;;;;;;;;6.00;5.00;;;;;9.60;56.36;101379.75;5091341;27;45784;-74
2023/03/20 05:50:39;;;;;;;;;3.00;3.00;;;;;9.78;56.39;101417.97;5093534;27;45817;-75
2023/03/20 05:53:05;;;;;;;;;6.00;5.00;;;;;9.78;56.37;101420.59;5093359;27;45877;-75
2023/03/20 05:55:35;;;;;;;;;7.00;5.00;;;;;9.79;56.13;101411.81;5087273;27;46546;-73
2023/03/20 05:58:07;;;;;;;;;5.00;3.00;;;;;9.75;56.23;101401.59;5091697;27;46058;-74
2023/03/20 06:00:32;;;;;;;;;5.00;3.00;;;;;9.81;56.07;101414.34;5091871;27;45832;-75
2023/03/20 06:02:58;;;;;;;;;3.75;3.75;;;;;9.65;55.80;101396.03;5091487;27;48539;-74
2023/03/20 06:05:23;;;;;;;;;5.25;3.00;;;;;9.77;55.95;101423.31;5086977;27;46542;-74
2023/03/20 06:07:54;;;;;;;;;5.75;3.00;;;;;9.63;55.69;101405.72;5092266;27;46042;-75
2023/03/20 06:10:20;;;;;;;;;2.75;2.75;;;;;9.72;55.60;101435.78;5090497;27;45613;-73
2023/03/20 06:12:45;;;;;;;;;3.00;2.75;;;;;9.63;55.61;101432.72;5086991;27;47370;-74
2023/03/20 06:15:12;;;;;;;;;3.00;3.00;;;;;9.68;55.38;101441.19;5090420;27;46187;-73
2023/03/20 06:17:39;;;;;;;;;3.00;3.00;;;;;9.66;55.53;101440.41;5089417;27;45743;-75
2023/03/20 06:20:06;;;;;;;;;4.00;3.00;;;;;9.18;55.32;101369.78;5089242;27;45800;-74
2023/03/20 06:22:31;;;;;;;;;5.00;3.00;;;;;9.59;55.38;101432.97;5092394;27;47244;-72
2023/03/20 06:24:57;;;;;;;;;5.25;4.00;;;;;9.31;55.52;101409.22;5089028;27;46402;-74
2023/03/20 06:27:22;;;;;;;;;5.25;3.00;;;;;9.57;55.17;101447.91;5088794;27;45656;-73
2023/03/20 06:29:48;;;;;;;;;6.00;3.00;;;;;9.43;55.32;101417.28;5092774;27;45705;-74
2023/03/20 06:32:16;;;;;;;;;5.25;3.50;;;;;9.56;55.38;101439.22;5093160;27;45818;-72
2023/03/20 06:34:41;;;;;;;;;6.75;4.00;;;;;9.56;55.47;101436.59;5096612;27;46861;-73
2023/03/20 06:37:07;;;;;;;;;4.50;3.00;;;;;9.56;55.37;101431.38;5084351;27;45874;-74
2023/03/20 06:39:32;;;;;;;;;5.25;3.00;;;;;9.59;55.21;101432.97;5107974;27;45848;-74
2023/03/20 06:41:57;;;;;;;;;5.50;2.75;;;;;9.60;55.46;101422.44;5092250;27;45745;-74
2023/03/20 06:44:23;;;;;;;;;4.00;2.50;;;;;9.66;55.76;101426.50;5086022;27;45802;-75
2023/03/20 06:46:49;;;;;;;;;2.00;2.00;;;;;9.71;55.10;101423.63;5083641;27;45868;-74
2023/03/20 06:49:15;;;;;;;;;3.00;3.00;;;;;9.72;55.18;101420.91;5085460;27;46196;-74
2023/03/20 06:51:41;;;;;;;;;4.50;2.50;;;;;9.73;54.99;101420.00;5089575;27;46951;-74
2023/03/20 06:54:06;;;;;;;;;2.75;2.00;;;;;9.58;54.88;101392.06;5074584;28;47087;-75
2023/03/20 06:56:31;;;;;;;;;2.75;2.75;;;;;9.77;55.33;101424.13;5074994;28;45649;-76
2023/03/20 06:58:57;;;;;;;;;3.00;2.00;;;;;9.79;54.78;101418.81;5075228;28;45571;-74
2023/03/20 07:01:23;;;;;;;;;3.00;2.00;;;;;9.80;55.12;101416.13;5074693;27;45654;-74
2023/03/20 07:03:49;;;;;;;;;2.25;2.00;;;;;9.83;54.55;101433.41;5074384;27;47194;-73
2023/03/20 07:06:15;;;;;;;;;3.00;2.00;;;;;9.85;54.48;101434.19;5074433;27;45443;-71
2023/03/20 07:08:40;;;;;;;;;5.00;3.00;;;;;9.83;54.78;101434.25;5074203;28;45544;-73
2023/03/20 07:11:06;;;;;;;;;5.00;3.00;;;;;9.81;54.59;101425.66;5074551;27;45820;-71
2023/03/20 07:13:32;;;;;;;;;4.50;2.00;;;;;9.86;54.75;101422.78;5074529;27;46600;-74
2023/03/20 07:16:00;;;;;;;;;2.00;2.00;;;;;9.96;54.47;101439.66;5074521;27;45886;-81
2023/03/20 07:18:29;;;;;;;;;5.50;5.50;;;;;10.01;54.40;101441.09;5075086;27;45755;-72
2023/03/20 07:21:01;;;;;;;;;2.75;2.75;;;;;10.05;54.57;101449.63;5073654;27;46516;-72
2023/03/20 07:23:27;;;;;;;;;3.00;2.00;;;;;10.08;54.57;101437.22;5074445;27;47203;-72
2023/03/20 07:25:56;;;;;;;;;2.50;2.00;;;;;10.07;54.18;101430.31;5073166;28;45925;-73
2023/03/20 07:28:23;;;;;;;;;2.50;2.25;;;;;10.21;54.34;101437.41;5074791;27;45500;-74
2023/03/20 07:30:51;;;;;;;;;2.50;2.50;;;;;10.27;54.36;101441.44;5074072;27;46411;-73
2023/03/20 07:33:19;;;;;;;;;2.50;2.00;;;;;10.21;54.05;101419.06;5074035;27;46038;-75
2023/03/20 07:35:51;;;;;;;;;3.00;2.00;;;;;10.38;53.92;101429.44;5073731;27;45995;-74
2023/03/20 07:38:16;;;;;;;;;3.00;2.25;;;;;10.36;53.96;101428.69;5074042;27;45651;-73
2023/03/20 07:44:03;;;;;;;;;3.50;3.00;;;;;10.55;54.12;101430.25;5073736;28;45682;-75
2023/03/20 07:46:29;;;;;;;;;5.25;4.75;;;;;10.60;54.03;101436.91;5073081;27;45573;-72
2023/03/20 07:48:57;;;;;;;;;3.00;2.25;;;;;10.35;53.74;101392.09;5074054;27;45597;-74
2023/03/20 07:51:22;;;;;;;;;3.00;3.00;;;;;10.59;53.76;101419.50;5089047;27;45676;-74
2023/03/20 07:53:48;;;;;;;;;2.00;2.00;;;;;10.74;53.47;101442.19;5073772;27;45646;-73
2023/03/20 07:59:35;;;;;;;;;3.00;2.00;;;;;10.83;53.34;101435.56;5073951;28;45734;-76
2023/03/20 08:02:00;;;;;;;;;5.50;3.00;;;;;10.86;53.24;101438.00;5073648;28;46416;-74
2023/03/20 08:04:25;;;;;;;;;3.00;3.00;;;;;10.81;53.12;101419.09;5073725;28;45758;-73
2023/03/20 08:06:51;;;;;;;;;4.25;3.00;;;;;10.88;53.25;101438.78;5073630;27;45705;-74
2023/03/20 08:09:16;;;;;;;;;2.00;2.00;;;;;10.93;53.03;101428.84;5073970;28;45623;-76
2023/03/20 08:11:42;;;;;;;;;3.50;2.00;;;;;10.89;52.97;101422.97;5073747;27;46254;-74
2023/03/20 08:14:07;;;;;;;;;2.00;1.75;;;;;10.97;53.08;101434.75;5073795;28;45809;-74
2023/03/20 08:16:32;;;;;;;;;4.00;4.00;;;;;10.98;53.11;101434.66;5073642;28;45775;-72
2023/03/20 08:19:00;;;;;;;;;3.50;2.75;;;;;11.03;53.13;101439.63;5074043;27;45926;-74
2023/03/20 08:21:29;;;;;;;;;4.00;3.25;;;;;11.06;53.18;101440.31;5074070;28;46604;-73
2023/03/20 08:23:55;;;;;;;;;3.00;2.50;;;;;11.13;53.03;101444.22;5074246;27;46041;-75
2023/03/20 08:29:42;;;;;;;;;5.50;3.75;;;;;11.25;52.93;101456.63;5073570;28;45529;-73
2023/03/20 08:32:07;;;;;;;;;3.00;3.00;;;;;11.30;53.15;101454.56;5073743;27;45501;-73
2023/03/20 08:34:33;;;;;;;;;4.50;3.00;;;;;11.28;52.80;101451.16;5076622;28;46782;-72
2023/03/20 08:36:58;;;;;;;;;6.00;2.00;;;;;11.35;52.56;101457.75;5076733;27;45524;-73
2023/03/20 08:39:23;;;;;;;;;5.50;2.00;;;;;11.35;52.73;101465.63;5077094;27;45564;-73
2023/03/20 08:45:11;;;;;;;;;3.25;2.00;;;;;11.40;52.83;101473.19;5076619;28;45809;-74
2023/03/20 08:47:36;;;;;;;;;4.00;3.00;;;;;11.44;52.71;101476.50;5076570;28;45487;-74
2023/03/20 08:50:02;;;;;;;;;3.50;3.00;;;;;11.46;52.75;101474.59;5077288;28;45593;-74
2023/03/20 08:52:27;;;;;;;;;3.75;3.00;;;;;11.49;52.94;101483.16;5076703;27;46312;-76
2023/03/20 08:54:53;;;;;;;;;3.75;2.50;;;;;11.54;52.63;101478.47;5076253;28;46252;-75
2023/03/20 08:57:18;;;;;;;;;2.00;2.00;;;;;11.59;52.88;101476.41;5076287;28;45666;-75
2023/03/20 08:59:43;;;;;;;;;2.50;2.00;;;;;11.58;52.72;101468.63;5077024;28;45576;-75
2023/03/20 09:02:10;;;;;;;;;4.00;3.50;;;;;11.61;52.80;101469.25;5076650;27;45608;-76
2023/03/20 09:04:36;;;;;;;;;2.25;2.25;;;;;11.68;52.93;101465.34;5076341;27;46303;-75
2023/03/20 09:07:01;;;;;;;;;6.25;3.75;;;;;11.72;52.70;101458.09;5076759;27;45589;-74
2023/03/20 09:09:28;;;;;;;;;3.00;2.00;;;;;11.76;52.83;101465.75;5076979;27;45738;-74
2023/03/20 09:15:15;;;;;;;;;3.00;2.00;;;;;11.94;52.96;101457.63;5076173;28;46121;-75
2023/03/20 09:17:40;;;;;;;;;3.25;2.50;;;;;12.00;52.77;101449.38;5076373;27;45541;-74
2023/03/20 09:20:07;;;;;;;;;5.00;3.00;;;;;12.09;52.77;101449.63;5076345;28;45609;-74
2023/03/20 09:22:32;;;;;;;;;6.00;2.00;;;;;12.12;52.78;101436.31;5076324;27;45627;-74
2023/03/20 09:24:57;;;;;;;;;2.50;2.50;;;;;12.22;52.67;101447.06;5076144;28;45975;-76
2023/03/20 09:27:23;;;;;;;;;2.50;2.50;;;;;12.29;52.71;101437.00;5076214;28;45511;-76
2023/03/20 09:29:48;;;;;;;;;3.00;3.00;;;;;12.31;52.69;101422.00;5076321;28;45501;-75
2023/03/20 09:32:14;;;;;;;;;4.00;3.00;;;;;12.44;52.60;101433.38;5074693;28;47140;-75
2023/03/20 09:34:40;;;;;;;;;5.25;3.25;;;;;12.50;52.49;101439.06;5075653;27;46227;-75
2023/03/20 09:37:06;;;;;;;;;2.50;2.00;;;;;12.54;52.74;101437.06;5075926;27;45628;-75
2023/03/20 09:39:32;;;;;;;;;6.50;3.75;;;;;12.56;52.42;101428.16;5076025;27;45514;-75
2023/03/20 09:45:36;;;;;;;;;3.00;2.00;;;;;12.74;52.36;101436.59;5075141;28;45729;-73
2023/03/20 09:48:14;;;;;;;;;3.50;2.00;;;;;12.83;52.14;101445.66;5075706;27;45749;-73
2023/03/20 09:50:49;;;;;;;;;3.00;1.00;;;;;12.90;52.00;101455.66;5076093;28;45893;-73
2023/03/20 09:53:28;;;;;;;;;2.00;1.50;;;;;12.96;51.85;101451.78;5076327;27;45529;-72
2023/03/20 09:55:55;;;;;;;;;1.75;1.75;;;;;13.05;51.67;101459.06;5075897;27;47153;-74
2023/03/20 09:58:26;;;;;;;;;3.00;2.00;;;;;13.10;51.23;101454.31;5075731;27;45769;-72
2023/03/20 10:00:57;;;;;;;;;4.00;2.00;;;;;13.17;51.21;101460.06;5075701;27;45513;-73
2023/03/20 10:03:41;;;;;;;;;2.50;2.25;;;;;13.24;51.23;101448.97;5075467;27;47479;-73
2023/03/20 10:06:13;;;;;;;;;1.00;0.00;;;;;13.25;50.69;101460.34;5075428;27;46015;-74
2023/03/20 10:08:38;;;;;;;;;2.00;2.00;;;;;13.16;50.77;101439.94;5075330;28;45656;-73
2023/03/20 10:11:51;;;;;;;;;3.00;3.00;;;;;13.18;50.68;101459.09;5075425;28;45827;-72
2023/03/20 10:15:07;;;;;;;;;3.00;3.00;;;;;13.17;50.83;101460.88;4992956;28;46296;-74
2023/03/20 10:17:50;;;;;;;;;3.00;2.00;;;;;13.11;51.09;101448.13;4960638;28;46394;-73
2023/03/20 10:20:31;;;;;;;;;2.00;1.00;;;;;13.11;50.79;101444.66;4993320;28;45598;-73
2023/03/20 10:23:04;;;;;;;;;3.00;2.50;;;;;13.09;51.20;101447.38;4976595;28;45877;-73
2023/03/20 10:25:36;;;;;;;;;2.00;2.00;;;;;13.07;51.30;101443.16;4992965;28;45776;-73
2023/03/20 10:28:12;;;;;;;;;4.00;2.00;;;;;13.07;50.73;101427.38;4992575;28;47561;-72
2023/03/20 10:31:07;;;;;;;;;4.00;2.00;;;;;13.12;50.83;101434.03;4993059;28;45813;-73
2023/03/20 10:33:50;;;;;;;;;4.00;2.00;;;;;13.16;50.83;101437.31;4976585;28;45915;-74
2023/03/20 10:36:27;;;;;;;;;2.00;2.00;;;;;13.20;50.90;101428.25;4992581;28;46504;-71
2023/03/20 10:38:59;;;;;;;;;2.00;2.00;;;;;13.18;50.88;101420.47;4992931;28;47136;-73
2023/03/20 10:44:54;;;;;;;;;2.00;1.00;;;;;13.28;50.64;101420.69;4992590;28;45786;-73
2023/03/20 10:47:26;;;;;;;;;2.75;2.00;;;;;13.34;50.62;101433.41;4992101;28;46803;-72
2023/03/20 10:49:57;;;;;;;;;2.25;2.25;;;;;13.37;50.58;101428.78;5005372;28;46286;-72
2023/03/20 10:52:28;;;;;;;;;3.25;2.00;;;;;13.47;51.13;101428.13;5074706;27;45662;-73
2023/03/20 10:55:05;;;;;;;;;2.00;2.00;;;;;13.56;50.69;101424.84;5089938;27;46010;-73
2023/03/20 11:00:55;;;;;;;;;3.00;2.00;;;;;13.81;50.83;101414.28;5074765;28;45597;-73
2023/03/20 11:03:24;;;;;;;;;3.75;2.00;;;;;13.94;50.63;101406.31;5075248;27;45716;-73
2023/03/20 11:06:16;;;;;;;;;2.00;2.00;;;;;14.07;50.48;101407.13;5074693;27;45837;-73
2023/03/20 11:08:46;;;;;;;;;2.25;2.00;;;;;14.15;50.13;101405.59;5074189;27;47462;-74
2023/03/20 11:11:11;;;;;;;;;2.50;1.50;;;;;14.18;49.81;101401.91;5074169;27;46238;-72
2023/03/20 11:17:02;;;;;;;;;3.00;3.00;;;;;14.35;49.67;101384.84;5074211;28;45673;-74
2023/03/20 11:19:33;;;;;;;;;3.50;3.00;;;;;14.41;49.72;101387.91;5074148;27;47618;-73
2023/03/20 11:22:00;;;;;;;;;2.50;1.00;;;;;14.49;49.88;101389.94;5074390;27;45590;-74
2023/03/20 11:24:33;;;;;;;;;2.75;2.00;;;;;14.56;49.68;101388.53;5073859;27;45575;-75
2023/03/20 11:27:26;;;;;;;;;3.00;3.00;;;;;14.62;49.61;101386.28;5074392;28;45596;-73
2023/03/20 11:29:52;;;;;;;;;4.00;3.00;;;;;14.67;49.34;101381.50;5072246;27;47075;-72
2023/03/20 11:32:26;;;;;;;;;2.75;2.75;;;;;14.57;49.37;101361.22;5073879;28;46313;-73
2023/03/20 11:34:56;;;;;;;;;4.50;3.00;;;;;14.75;49.18;101374.78;5089516;27;45687;-72
2023/03/20 11:37:28;;;;;;;;;50.50;38.25;;;;;14.79;49.47;101379.72;5074042;28;45584;-74
2023/03/20 11:40:30;;;;;;;;;16.00;14.50;;;;;14.86;49.80;101377.44;5073681;28;46379;-75
2023/03/20 11:43:21;;;;;;;;;34.75;27.00;;;;;14.92;49.52;101372.53;5072053;27;45651;-74
2023/03/20 11:45:55;;;;;;;;;4.00;4.00;;;;;15.03;49.74;101377.84;5067920;27;45617;-72
2023/03/20 11:48:23;;;;;;;;;5.50;4.50;;;;;15.13;49.20;101380.59;5073668;27;45860;-74
2023/03/20 11:51:07;;;;;;;;;3.00;2.50;;;;;15.15;49.21;101375.22;5073900;27;46415;-74
2023/03/20 11:53:50;;;;;;;;;2.75;2.00;;;;;15.19;48.91;101377.47;5073877;27;45799;-73
2023/03/20 11:56:27;;;;;;;;;4.00;2.25;;;;;15.14;48.68;101387.56;5073768;28;45905;-73
2023/03/20 11:59:05;;;;;;;;;3.50;3.25;;;;;15.07;49.01;101368.72;5073806;27;45815;-72
2023/03/20 12:01:47;;;;;;;;;3.75;3.00;;;;;15.16;48.82;101374.25;5073131;27;47789;-72
2023/03/20 12:04:16;;;;;;;;;3.00;2.75;;;;;15.11;48.79;101378.06;5073656;27;46139;-73
2023/03/20 12:06:53;;;;;;;;;3.00;2.00;;;;;15.12;49.14;101376.28;5073405;28;45724;-73
2023/03/20 12:09:32;;;;;;;;;6.50;4.00;;;;;15.18;48.78;101367.88;5077044;27;45518;-73
2023/03/20 12:15:30;;;;;;;;;2.25;2.00;;;;;15.19;48.68;101358.16;5076907;28;45666;-73
2023/03/20 12:18:23;;;;;;;;;2.00;2.00;;;;;15.20;48.66;101354.56;5076978;27;45623;-73
2023/03/20 12:21:10;;;;;;;;;3.00;3.00;;;;;15.23;48.85;101365.72;5077011;28;45868;-72
2023/03/20 12:23:46;;;;;;;;;4.00;3.00;;;;;15.27;48.77;101359.25;5076862;27;45599;-74
2023/03/20 12:26:20;;;;;;;;;4.25;3.75;;;;;15.32;49.12;101359.72;5076961;27;46978;-73
2023/03/20 12:32:23;;;;;;;;;3.00;2.00;;;;;15.48;48.61;101354.91;5076715;28;45592;-73
2023/03/20 12:35:12;;;;;;;;;3.00;2.00;;;;;15.55;48.83;101347.34;5076921;27;45673;-73
2023/03/20 12:37:37;;;;;;;;;4.25;3.00;;;;;15.63;48.46;101347.59;5077257;27;45939;-74
2023/03/20 12:40:03;;;;;;;;;5.75;3.25;;;;;15.70;48.63;101346.16;5077319;28;45777;-72